createdAt,value
2019-02-11T00:00:16.340Z,4.12
2019-02-11T00:01:16.570Z,4.12
2019-02-11T00:02:16.535Z,4.19
2019-02-11T00:03:16.522Z,4.26
2019-02-11T00:04:15.994Z,4.26
2019-02-11T00:05:15.992Z,4.39
2019-02-11T00:06:16.450Z,4.33
2019-02-11T00:07:16.173Z,4.36
2019-02-11T00:08:16.410Z,4.32
2019-02-11T00:09:16.131Z,4.34
2019-02-11T00:10:15.861Z,4.26
2019-02-11T00:11:16.101Z,4.4
2019-02-11T00:12:16.064Z,4.33
2019-02-11T00:13:16.302Z,4.39
2019-02-11T00:14:16.284Z,4.29
2019-02-11T00:15:16.004Z,4.34
2019-02-11T00:16:16.011Z,4.4
2019-02-11T00:17:15.955Z,4.37
2019-02-11T00:18:15.685Z,4.32
2019-02-11T00:19:15.914Z,4.36
2019-02-11T00:20:15.671Z,4.34
2019-02-11T00:21:15.870Z,4.39
2019-02-11T00:22:15.871Z,4.37
2019-02-11T00:23:15.843Z,4.39
2019-02-11T00:24:16.415Z,4.44
2019-02-11T00:25:15.788Z,4.4
2019-02-11T00:26:16.011Z,4.39
2019-02-11T00:27:16.007Z,4.39
2019-02-11T00:28:15.732Z,4.44
2019-02-11T00:29:15.702Z,4.43
2019-02-11T00:30:15.671Z,4.47
2019-02-11T00:31:15.763Z,4.5
2019-02-11T00:32:15.680Z,4.44
2019-02-11T00:33:15.908Z,4.5
2019-02-11T00:34:15.586Z,4.5
2019-02-11T00:35:15.565Z,4.52
2019-02-11T00:36:15.798Z,4.5
2019-02-11T00:37:15.516Z,4.59
2019-02-11T00:38:15.756Z,4.61
2019-02-11T00:39:15.215Z,4.59
2019-02-11T00:40:15.202Z,4.57
2019-02-11T00:41:15.729Z,4.57
2019-02-11T00:42:15.664Z,4.62
2019-02-11T00:43:23.441Z,4.58
2019-02-11T00:44:15.922Z,4.58
2019-02-11T00:45:15.602Z,4.7
2019-02-11T00:46:15.348Z,4.58
2019-02-11T00:47:15.044Z,4.7
2019-02-11T00:48:15.559Z,4.64
2019-02-11T00:49:15.005Z,4.76
2019-02-11T00:50:15.488Z,4.76
2019-02-11T00:51:15.228Z,4.77
2019-02-11T00:52:15.202Z,4.79
2019-02-11T00:53:15.418Z,4.86
2019-02-11T00:54:15.156Z,4.76
2019-02-11T00:55:14.869Z,4.79
2019-02-11T00:56:15.108Z,4.91
2019-02-11T00:57:14.824Z,4.84
2019-02-11T00:58:15.063Z,4.84
2019-02-11T00:59:15.299Z,4.88
2019-02-11T01:00:15.280Z,4.89
2019-02-11T01:01:14.767Z,4.86
2019-02-11T01:02:14.722Z,4.86
2019-02-11T01:03:14.957Z,4.88
2019-02-11T01:04:14.935Z,4.91
2019-02-11T01:05:15.174Z,4.84
2019-02-11T01:06:14.887Z,4.96
2019-02-11T01:07:14.631Z,4.92
2019-02-11T01:08:14.850Z,4.98
2019-02-11T01:09:15.079Z,4.91
2019-02-11T01:10:14.802Z,4.98
2019-02-11T01:11:14.531Z,4.98
2019-02-11T01:12:14.767Z,4.92
2019-02-11T01:13:14.737Z,4.99
2019-02-11T01:14:14.991Z,4.98
2019-02-11T01:15:14.720Z,4.99
2019-02-11T01:16:14.678Z,4.92
2019-02-11T01:17:14.945Z,5.02
2019-02-11T01:18:14.893Z,4.99
2019-02-11T01:19:14.870Z,4.98
2019-02-11T01:20:14.841Z,5.02
2019-02-11T01:21:14.821Z,4.99
2019-02-11T01:22:14.795Z,5.05
2019-02-11T01:23:14.779Z,5.05
2019-02-11T01:24:14.536Z,5.04
2019-02-11T01:25:14.735Z,5.04
2019-02-11T01:26:14.661Z,5.09
2019-02-11T01:27:14.715Z,5.05
2019-02-11T01:28:14.441Z,5.12
2019-02-11T01:29:14.645Z,5.1
2019-02-11T01:30:14.369Z,5.09
2019-02-11T01:31:14.605Z,5.12
2019-02-11T01:32:14.582Z,5.16
2019-02-11T01:33:14.555Z,5.13
2019-02-11T01:34:14.532Z,5.1
2019-02-11T01:35:14.260Z,5.16
2019-02-11T01:36:14.022Z,5.16
2019-02-11T01:37:14.488Z,5.16
2019-02-11T01:38:14.260Z,5.16
2019-02-11T01:39:14.515Z,5.25
2019-02-11T01:40:14.591Z,5.14
2019-02-11T01:41:14.133Z,5.13
2019-02-11T01:42:14.377Z,5.13
2019-02-11T01:43:14.379Z,5.22
2019-02-11T01:44:13.819Z,5.22
2019-02-11T01:45:13.790Z,5.23
2019-02-11T01:46:14.300Z,5.23
2019-02-11T01:47:14.285Z,5.28
2019-02-11T01:48:14.001Z,5.25
2019-02-11T01:49:14.217Z,5.28
2019-02-11T01:50:13.946Z,5.31
2019-02-11T01:51:14.005Z,5.23
2019-02-11T01:52:14.153Z,5.31
2019-02-11T01:53:13.875Z,5.32
2019-02-11T01:54:13.854Z,5.3
2019-02-11T01:55:13.629Z,5.3
2019-02-11T01:56:14.069Z,5.28
2019-02-11T01:57:13.794Z,5.34
2019-02-11T01:58:14.018Z,5.28
2019-02-11T01:59:14.004Z,5.34
2019-02-11T02:00:13.980Z,5.32
2019-02-11T02:01:13.958Z,5.46
2019-02-11T02:02:13.942Z,5.4
2019-02-11T02:03:13.935Z,5.45
2019-02-11T02:04:13.634Z,5.45
2019-02-11T02:05:13.876Z,5.46
2019-02-11T02:06:13.865Z,5.46
2019-02-11T02:07:13.569Z,5.45
2019-02-11T02:08:13.549Z,5.48
2019-02-11T02:09:13.531Z,5.43
2019-02-11T02:10:13.828Z,5.43
2019-02-11T02:11:13.234Z,5.49
2019-02-11T02:12:13.466Z,5.5
2019-02-11T02:13:13.707Z,5.63
2019-02-11T02:14:13.275Z,5.46
2019-02-11T02:15:13.663Z,5.59
2019-02-11T02:16:13.635Z,5.5
2019-02-11T02:17:13.360Z,5.57
2019-02-11T02:18:13.340Z,5.59
2019-02-11T02:19:13.315Z,5.6
2019-02-11T02:20:13.557Z,5.53
2019-02-11T02:21:13.017Z,5.55
2019-02-11T02:22:13.250Z,5.55
2019-02-11T02:23:13.496Z,5.56
2019-02-11T02:24:13.215Z,5.53
2019-02-11T02:25:13.189Z,5.56
2019-02-11T02:26:13.531Z,5.64
2019-02-11T02:27:13.153Z,5.63
2019-02-11T02:28:13.122Z,5.63
2019-02-11T02:29:13.356Z,5.59
2019-02-11T02:30:12.847Z,5.6
2019-02-11T02:31:13.071Z,5.66
2019-02-11T02:32:13.080Z,5.6
2019-02-11T02:33:13.025Z,5.66
2019-02-11T02:34:13.257Z,5.67
2019-02-11T02:35:12.974Z,5.59
2019-02-11T02:36:12.956Z,5.63
2019-02-11T02:37:12.679Z,5.66
2019-02-11T02:38:13.170Z,5.71
2019-02-11T02:39:12.894Z,5.67
2019-02-11T02:40:13.135Z,5.74
2019-02-11T02:41:13.101Z,5.6
2019-02-11T02:42:13.082Z,5.68
2019-02-11T02:43:13.067Z,5.67
2019-02-11T02:44:12.836Z,5.74
2019-02-11T02:45:12.778Z,5.68
2019-02-11T02:46:12.843Z,5.71
2019-02-11T02:47:12.718Z,5.74
2019-02-11T02:48:12.979Z,5.71
2019-02-11T02:49:12.954Z,5.73
2019-02-11T02:50:12.686Z,5.73
2019-02-11T02:51:12.637Z,5.63
2019-02-11T02:52:12.615Z,5.59
2019-02-11T02:53:12.853Z,5.67
2019-02-11T02:54:12.318Z,5.68
2019-02-11T02:55:12.299Z,5.73
2019-02-11T02:56:12.281Z,5.71
2019-02-11T02:57:12.781Z,5.63
2019-02-11T02:58:12.494Z,5.74
2019-02-11T02:59:12.214Z,5.74
2019-02-11T03:00:12.772Z,5.74
2019-02-11T03:01:12.683Z,5.71
2019-02-11T03:02:12.658Z,5.71
2019-02-11T03:03:12.639Z,5.7
2019-02-11T03:04:12.360Z,5.82
2019-02-11T03:05:12.344Z,5.73
2019-02-11T03:06:12.316Z,5.75
2019-02-11T03:07:12.049Z,5.75
2019-02-11T03:08:12.533Z,5.75
2019-02-11T03:09:12.263Z,5.75
2019-02-11T03:10:12.302Z,5.75
2019-02-11T03:11:11.963Z,5.75
2019-02-11T03:12:12.194Z,5.75
2019-02-11T03:13:12.416Z,5.71
2019-02-11T03:14:12.154Z,5.75
2019-02-11T03:15:11.879Z,5.73
2019-02-11T03:16:12.112Z,5.73
2019-02-11T03:17:12.092Z,5.71
2019-02-11T03:18:12.333Z,5.7
2019-02-11T03:19:12.044Z,5.7
2019-02-11T03:20:12.277Z,5.77
2019-02-11T03:21:12.006Z,5.66
2019-02-11T03:22:12.237Z,5.66
2019-02-11T03:23:11.959Z,5.7
2019-02-11T03:24:11.942Z,5.7
2019-02-11T03:25:12.180Z,5.73
2019-02-11T03:26:12.353Z,5.7
2019-02-11T03:27:11.619Z,5.67
2019-02-11T03:28:11.877Z,5.66
2019-02-11T03:29:11.836Z,5.57
2019-02-11T03:30:12.117Z,5.67
2019-02-11T03:31:12.078Z,5.74
2019-02-11T03:32:11.797Z,5.7
2019-02-11T03:33:12.027Z,5.67
2019-02-11T03:34:11.990Z,5.66
2019-02-11T03:35:11.966Z,5.64
2019-02-11T03:36:11.952Z,5.63
2019-02-11T03:37:11.415Z,5.64
2019-02-11T03:38:11.643Z,5.64
2019-02-11T03:39:11.888Z,5.64
2019-02-11T03:40:11.622Z,5.63
2019-02-11T03:41:11.585Z,5.64
2019-02-11T03:42:11.362Z,5.64
2019-02-11T03:43:11.804Z,5.67
2019-02-11T03:44:19.892Z,5.66
2019-02-11T03:45:11.755Z,5.63
2019-02-11T03:46:11.730Z,5.59
2019-02-11T03:47:11.708Z,5.67
2019-02-11T03:48:11.451Z,5.64
2019-02-11T03:49:11.419Z,5.59
2019-02-11T03:50:11.150Z,5.63
2019-02-11T03:51:11.387Z,5.66
2019-02-11T03:52:11.602Z,5.64
2019-02-11T03:53:11.587Z,5.66
2019-02-11T03:54:11.565Z,5.59
2019-02-11T03:55:11.560Z,5.67
2019-02-11T03:56:11.530Z,5.56
2019-02-11T03:57:11.240Z,5.7
2019-02-11T03:58:11.527Z,5.7
2019-02-11T03:59:11.206Z,5.64
2019-02-11T04:00:11.182Z,5.66
2019-02-11T04:01:10.905Z,5.6
2019-02-11T04:02:11.135Z,5.64
2019-02-11T04:03:10.875Z,5.59
2019-02-11T04:04:11.108Z,5.64
2019-02-11T04:05:11.338Z,5.67
2019-02-11T04:06:11.061Z,5.57
2019-02-11T04:07:11.535Z,5.6
2019-02-11T04:08:11.030Z,5.57
2019-02-11T04:09:11.250Z,5.64
2019-02-11T04:10:10.723Z,5.63
2019-02-11T04:11:11.202Z,5.66
2019-02-11T04:12:10.925Z,5.63
2019-02-11T04:13:10.908Z,5.59
2019-02-11T04:14:11.141Z,5.57
2019-02-11T04:15:10.714Z,5.55
2019-02-11T04:16:10.858Z,5.6
2019-02-11T04:17:10.873Z,5.57
2019-02-11T04:18:10.800Z,5.52
2019-02-11T04:19:11.035Z,5.53
2019-02-11T04:20:11.016Z,5.6
2019-02-11T04:21:10.734Z,5.64
2019-02-11T04:22:10.711Z,5.63
2019-02-11T04:23:10.960Z,5.63
2019-02-11T04:24:10.711Z,5.56
2019-02-11T04:25:10.655Z,5.56
2019-02-11T04:26:10.898Z,5.55
2019-02-11T04:27:10.617Z,5.63
2019-02-11T04:28:10.856Z,5.66
2019-02-11T04:29:10.823Z,5.63
2019-02-11T04:30:10.622Z,5.59
2019-02-11T04:31:10.550Z,5.56
2019-02-11T04:32:10.505Z,5.55
2019-02-11T04:33:10.483Z,5.57
2019-02-11T04:34:10.721Z,5.57
2019-02-11T04:35:10.706Z,5.6
2019-02-11T04:36:10.415Z,5.55
2019-02-11T04:37:10.675Z,5.59
2019-02-11T04:38:10.640Z,5.63
2019-02-11T04:39:10.611Z,5.57
2019-02-11T04:40:10.692Z,5.64
2019-02-11T04:41:10.082Z,5.53
2019-02-11T04:42:10.551Z,5.57
2019-02-11T04:43:10.549Z,5.57
2019-02-11T04:44:10.001Z,5.53
2019-02-11T04:45:10.487Z,5.5
2019-02-11T04:46:10.216Z,5.5
2019-02-11T04:47:10.443Z,5.52
2019-02-11T04:48:10.430Z,5.4
2019-02-11T04:49:10.403Z,5.52
2019-02-11T04:50:10.396Z,5.57
2019-02-11T04:51:10.359Z,5.57
2019-02-11T04:52:10.352Z,5.59
2019-02-11T04:53:10.069Z,5.55
2019-02-11T04:54:10.304Z,5.57
2019-02-11T04:55:10.021Z,5.56
2019-02-11T04:56:10.249Z,5.53
2019-02-11T04:57:10.236Z,5.53
2019-02-11T04:58:10.031Z,5.59
2019-02-11T04:59:10.207Z,5.63
2019-02-11T05:00:09.914Z,5.56
2019-02-11T05:01:09.646Z,5.56
2019-02-11T05:02:09.612Z,5.57
2019-02-11T05:03:10.106Z,5.63
2019-02-11T05:04:10.132Z,5.53
2019-02-11T05:05:09.823Z,5.56
2019-02-11T05:06:10.056Z,5.6
2019-02-11T05:07:09.515Z,5.6
2019-02-11T05:08:09.749Z,5.59
2019-02-11T05:09:09.980Z,5.49
2019-02-11T05:10:09.966Z,5.59
2019-02-11T05:11:09.695Z,5.45
2019-02-11T05:12:09.662Z,5.43
2019-02-11T05:13:09.885Z,5.46
2019-02-11T05:14:09.614Z,5.48
2019-02-11T05:15:09.601Z,5.46
2019-02-11T05:16:09.581Z,5.5
2019-02-11T05:17:09.823Z,5.34
2019-02-11T05:18:09.833Z,5.43
2019-02-11T05:19:09.519Z,5.34
2019-02-11T05:20:09.488Z,5.34
2019-02-11T05:21:09.724Z,5.27
2019-02-11T05:22:09.703Z,5.35
2019-02-11T05:23:09.430Z,5.23
2019-02-11T05:24:09.674Z,5.13
2019-02-11T05:25:09.717Z,5.2
2019-02-11T05:26:10.021Z,5.14
2019-02-11T05:27:09.360Z,5.13
2019-02-11T05:28:09.085Z,5.12
2019-02-11T05:29:09.553Z,5.13
2019-02-11T05:30:09.311Z,5.12
2019-02-11T05:31:09.252Z,5.12
2019-02-11T05:32:09.242Z,5.05
2019-02-11T05:33:09.556Z,4.95
2019-02-11T05:34:09.442Z,4.98
2019-02-11T05:35:09.176Z,4.94
2019-02-11T05:36:09.417Z,4.91
2019-02-11T05:37:09.132Z,4.86
2019-02-11T05:38:09.097Z,4.89
2019-02-11T05:39:09.087Z,4.91
2019-02-11T05:40:09.057Z,4.77
2019-02-11T05:41:09.302Z,4.84
2019-02-11T05:42:09.015Z,4.77
2019-02-11T05:43:09.247Z,4.76
2019-02-11T05:44:10.790Z,4.75
2019-02-11T05:45:08.963Z,4.69
2019-02-11T05:46:09.182Z,4.69
2019-02-11T05:47:08.911Z,4.73
2019-02-11T05:48:08.905Z,4.7
2019-02-11T05:49:09.134Z,4.69
2019-02-11T05:50:08.842Z,4.69
2019-02-11T05:51:09.077Z,4.72
2019-02-11T05:52:08.800Z,4.61
2019-02-11T05:53:08.788Z,4.62
2019-02-11T05:54:08.506Z,4.64
2019-02-11T05:55:08.728Z,4.65
2019-02-11T05:56:08.723Z,4.62
2019-02-11T05:57:08.698Z,4.57
2019-02-11T05:58:08.928Z,4.62
2019-02-11T05:59:08.663Z,4.67
2019-02-11T06:00:08.639Z,4.59
2019-02-11T06:01:08.867Z,4.62
2019-02-11T06:02:08.837Z,4.54
2019-02-11T06:03:09.574Z,4.54
2019-02-11T06:04:08.800Z,4.51
2019-02-11T06:05:08.837Z,4.55
2019-02-11T06:06:08.499Z,4.55
2019-02-11T06:07:08.474Z,4.51
2019-02-11T06:08:08.200Z,4.52
2019-02-11T06:09:08.429Z,4.47
2019-02-11T06:10:08.671Z,4.52
2019-02-11T06:11:08.392Z,4.62
2019-02-11T06:12:08.418Z,4.65
2019-02-11T06:13:08.088Z,4.59
2019-02-11T06:14:08.580Z,4.64
2019-02-11T06:15:09.451Z,4.62
2019-02-11T06:16:08.550Z,4.69
2019-02-11T06:17:08.514Z,4.64
2019-02-11T06:18:08.486Z,4.69
2019-02-11T06:19:08.487Z,4.58
2019-02-11T06:20:07.943Z,4.59
2019-02-11T06:21:08.426Z,4.69
2019-02-11T06:22:08.154Z,4.65
2019-02-11T06:23:08.382Z,4.79
2019-02-11T06:24:08.353Z,4.73
2019-02-11T06:25:08.396Z,4.75
2019-02-11T06:26:08.322Z,4.77
2019-02-11T06:27:08.352Z,4.76
2019-02-11T06:28:08.280Z,4.79
2019-02-11T06:29:08.001Z,4.88
2019-02-11T06:30:08.270Z,4.92
2019-02-11T06:31:07.950Z,4.83
2019-02-11T06:32:07.734Z,4.88
2019-02-11T06:33:08.163Z,4.83
2019-02-11T06:34:07.885Z,4.84
2019-02-11T06:35:07.864Z,4.88
2019-02-11T06:36:17.250Z,4.89
2019-02-11T06:37:07.840Z,4.91
2019-02-11T06:38:07.798Z,4.92
2019-02-11T06:39:07.781Z,4.88
2019-02-11T06:40:07.753Z,4.92
2019-02-11T06:41:07.991Z,4.91
2019-02-11T06:42:07.965Z,4.98
2019-02-11T06:43:07.457Z,4.88
2019-02-11T06:44:07.939Z,4.96
2019-02-11T06:45:15.562Z,4.89
2019-02-11T06:46:07.882Z,4.99
2019-02-11T06:47:07.604Z,4.91
2019-02-11T06:48:07.843Z,4.94
2019-02-11T06:49:07.815Z,4.98
2019-02-11T06:50:07.535Z,4.98
2019-02-11T06:51:07.774Z,4.92
2019-02-11T06:52:07.759Z,4.99
2019-02-11T06:53:07.475Z,5.05
2019-02-11T06:54:07.225Z,5.04
2019-02-11T06:55:07.470Z,5.05
2019-02-11T06:56:07.693Z,5.05
2019-02-11T06:57:08.624Z,5.07
2019-02-11T06:58:07.388Z,5.02
2019-02-11T06:59:07.616Z,5.05
2019-02-11T07:00:07.601Z,5.09
2019-02-11T07:01:07.561Z,5.1
2019-02-11T07:02:07.289Z,5.16
2019-02-11T07:03:07.003Z,5.13
2019-02-11T07:04:07.270Z,5.19
2019-02-11T07:05:07.225Z,5.19
2019-02-11T07:06:07.454Z,5.23
2019-02-11T07:07:06.932Z,5.14
2019-02-11T07:08:08.014Z,5.22
2019-02-11T07:09:07.138Z,5.25
2019-02-11T07:10:07.364Z,5.22
2019-02-11T07:11:07.363Z,5.32
2019-02-11T07:12:07.324Z,5.27
2019-02-11T07:13:07.302Z,5.3
2019-02-11T07:14:07.294Z,5.27
2019-02-11T07:15:07.015Z,5.35
2019-02-11T07:16:06.984Z,5.34
2019-02-11T07:17:06.957Z,5.3
2019-02-11T07:18:07.198Z,5.41
2019-02-11T07:19:06.928Z,5.49
2019-02-11T07:20:06.899Z,5.48
2019-02-11T07:21:06.873Z,5.48
2019-02-11T07:22:06.855Z,5.46
2019-02-11T07:23:06.844Z,5.43
2019-02-11T07:24:06.814Z,5.46
2019-02-11T07:25:06.882Z,5.43
2019-02-11T07:26:07.038Z,5.48
2019-02-11T07:27:06.753Z,5.45
2019-02-11T07:28:06.732Z,5.49
2019-02-11T07:29:06.964Z,5.46
2019-02-11T07:30:06.940Z,5.5
2019-02-11T07:31:06.664Z,5.43
2019-02-11T07:32:06.639Z,5.49
2019-02-11T07:33:06.371Z,5.4
2019-02-11T07:34:06.646Z,5.49
2019-02-11T07:35:06.859Z,5.45
2019-02-11T07:36:06.820Z,5.48
2019-02-11T07:37:06.290Z,5.49
2019-02-11T07:38:06.790Z,5.49
2019-02-11T07:39:06.814Z,5.63
2019-02-11T07:40:06.223Z,5.55
2019-02-11T07:41:06.748Z,5.63
2019-02-11T07:42:07.224Z,5.63
2019-02-11T07:43:06.409Z,5.67
2019-02-11T07:44:06.639Z,5.71
2019-02-11T07:45:06.635Z,5.67
2019-02-11T07:46:06.603Z,5.74
2019-02-11T07:47:06.129Z,5.78
2019-02-11T07:48:06.618Z,5.63
2019-02-11T07:49:06.277Z,5.77
2019-02-11T07:50:06.275Z,5.67
2019-02-11T07:51:06.603Z,5.64
2019-02-11T07:52:06.468Z,5.63
2019-02-11T07:53:06.461Z,5.68
2019-02-11T07:54:06.172Z,5.64
2019-02-11T07:55:06.181Z,5.66
2019-02-11T07:56:05.888Z,5.67
2019-02-11T07:57:06.116Z,5.74
2019-02-11T07:58:06.089Z,5.71
2019-02-11T07:59:06.322Z,5.75
2019-02-11T08:00:06.053Z,5.81
2019-02-11T08:01:06.298Z,5.74
2019-02-11T08:02:06.350Z,5.75
2019-02-11T08:03:05.738Z,5.74
2019-02-11T08:04:06.227Z,5.77
2019-02-11T08:05:06.251Z,5.77
2019-02-11T08:06:05.944Z,5.78
2019-02-11T08:07:06.166Z,5.83
2019-02-11T08:08:05.936Z,5.86
2019-02-11T08:09:05.615Z,5.83
2019-02-11T08:10:06.090Z,5.91
2019-02-11T08:11:05.821Z,5.98
2019-02-11T08:12:05.796Z,5.96
2019-02-11T08:13:06.037Z,5.91
2019-02-11T08:14:05.496Z,5.91
2019-02-11T08:15:06.001Z,5.92
2019-02-11T08:16:05.458Z,5.93
2019-02-11T08:17:05.949Z,6.01
2019-02-11T08:18:05.933Z,5.92
2019-02-11T08:19:05.653Z,5.95
2019-02-11T08:20:05.635Z,6.09
2019-02-11T08:21:05.616Z,6.06
2019-02-11T08:22:05.844Z,6.16
2019-02-11T08:23:14.126Z,6.25
2019-02-11T08:24:05.547Z,6.18
2019-02-11T08:25:05.271Z,6.25
2019-02-11T08:26:06.210Z,6.22
2019-02-11T08:27:05.491Z,6.3
2019-02-11T08:28:05.458Z,6.32
2019-02-11T08:29:05.465Z,6.25
2019-02-11T08:30:05.428Z,6.26
2019-02-11T08:31:05.167Z,6.21
2019-02-11T08:32:05.382Z,6.22
2019-02-11T08:33:05.118Z,6.22
2019-02-11T08:34:05.344Z,6.28
2019-02-11T08:35:05.576Z,6.19
2019-02-11T08:36:05.555Z,6.28
2019-02-11T08:37:05.536Z,6.22
2019-02-11T08:38:05.514Z,6.28
2019-02-11T08:39:06.972Z,6.28
2019-02-11T08:40:05.215Z,6.13
2019-02-11T08:41:05.193Z,6.22
2019-02-11T08:42:05.443Z,6.11
2019-02-11T08:43:05.407Z,6.11
2019-02-11T08:44:05.140Z,6.16
2019-02-11T08:45:05.164Z,6.13
2019-02-11T08:46:05.345Z,6.04
2019-02-11T08:47:05.228Z,6.11
2019-02-11T08:48:05.312Z,6.16
2019-02-11T08:49:05.141Z,6.07
2019-02-11T08:50:05.342Z,6.14
2019-02-11T08:51:05.242Z,6.11
2019-02-11T08:52:04.970Z,6.09
2019-02-11T08:53:04.958Z,6.19
2019-02-11T08:54:04.946Z,6.1
2019-02-11T08:55:05.170Z,6.18
2019-02-11T08:56:05.936Z,6.1
2019-02-11T08:57:04.613Z,6.16
2019-02-11T08:58:04.598Z,6.11
2019-02-11T08:59:04.825Z,6.09
2019-02-11T09:00:04.596Z,6.09
2019-02-11T09:01:04.780Z,6.07
2019-02-11T09:02:04.510Z,6.11
2019-02-11T09:03:04.740Z,6.1
2019-02-11T09:04:04.973Z,6.1
2019-02-11T09:05:04.877Z,6.04
2019-02-11T09:06:04.423Z,6.1
2019-02-11T09:07:04.657Z,6.07
2019-02-11T09:08:05.560Z,6.07
2019-02-11T09:09:04.888Z,6.07
2019-02-11T09:10:04.643Z,6.11
2019-02-11T09:11:04.832Z,6.07
2019-02-11T09:12:04.566Z,6.1
2019-02-11T09:13:04.535Z,6.09
2019-02-11T09:14:04.766Z,6.13
2019-02-11T09:15:04.742Z,6.09
2019-02-11T09:16:04.762Z,6.11
2019-02-11T09:17:12.441Z,6.22
2019-02-11T09:18:04.183Z,6.21
2019-02-11T09:19:04.172Z,6.21
2019-02-11T09:20:04.645Z,6.21
2019-02-11T09:21:04.638Z,6.18
2019-02-11T09:22:12.085Z,6.21
2019-02-11T09:23:04.325Z,6.19
2019-02-11T09:24:04.054Z,6.25
2019-02-11T09:25:04.540Z,6.19
2019-02-11T09:26:04.263Z,6.11
2019-02-11T09:27:04.449Z,6.1
2019-02-11T09:28:04.532Z,6.16
2019-02-11T09:29:04.204Z,6.11
2019-02-11T09:30:03.927Z,6.1
2019-02-11T09:31:04.162Z,6.13
2019-02-11T09:32:04.139Z,6.1
2019-02-11T09:33:04.120Z,6.16
2019-02-11T09:34:04.100Z,6.07
2019-02-11T09:35:04.079Z,6.18
2019-02-11T09:36:05.865Z,6.22
2019-02-11T09:37:04.037Z,6.22
2019-02-11T09:38:04.287Z,6.19
2019-02-11T09:39:04.247Z,6.21
2019-02-11T09:40:04.235Z,6.18
2019-02-11T09:41:04.212Z,6.19
2019-02-11T09:42:03.939Z,6.22
2019-02-11T09:43:03.907Z,6.19
2019-02-11T09:44:04.149Z,6.22
2019-02-11T09:45:03.887Z,6.25
2019-02-11T09:46:08.812Z,6.19
2019-02-11T09:47:04.091Z,6.21
2019-02-11T09:48:04.124Z,6.18
2019-02-11T09:49:03.795Z,6.19
2019-02-11T09:50:04.030Z,6.19
2019-02-11T09:51:04.006Z,6.21
2019-02-11T09:52:03.724Z,6.21
2019-02-11T09:53:03.969Z,6.26
2019-02-11T09:54:03.937Z,6.21
2019-02-11T09:55:03.664Z,6.25
2019-02-11T09:56:03.668Z,6.25
2019-02-11T09:57:03.878Z,6.29
2019-02-11T09:58:03.610Z,6.29
2019-02-11T09:59:03.594Z,6.28
2019-02-11T10:00:03.852Z,6.26
2019-02-11T10:01:03.815Z,6.32
2019-02-11T10:02:03.583Z,6.29
2019-02-11T10:03:03.647Z,6.3
2019-02-11T10:04:03.481Z,6.33
2019-02-11T10:05:03.205Z,6.28
2019-02-11T10:06:03.435Z,6.28
2019-02-11T10:07:03.436Z,6.3
2019-02-11T10:08:03.659Z,6.3
2019-02-11T10:09:03.630Z,6.33
2019-02-11T10:10:03.613Z,6.32
2019-02-11T10:11:03.387Z,6.33
2019-02-11T10:12:03.571Z,6.36
2019-02-11T10:13:03.546Z,6.3
2019-02-11T10:14:03.352Z,6.29
2019-02-11T10:15:03.520Z,6.3
2019-02-11T10:16:03.493Z,6.36
2019-02-11T10:17:03.224Z,6.38
2019-02-11T10:18:03.452Z,6.38
2019-02-11T10:19:03.475Z,6.3
2019-02-11T10:20:03.438Z,6.35
2019-02-11T10:21:03.388Z,6.38
2019-02-11T10:22:03.109Z,6.35
2019-02-11T10:23:03.350Z,6.33
2019-02-11T10:24:03.323Z,6.44
2019-02-11T10:25:03.056Z,6.44
2019-02-11T10:26:03.288Z,6.51
2019-02-11T10:27:03.012Z,6.5
2019-02-11T10:28:02.993Z,6.53
2019-02-11T10:29:03.271Z,6.59
2019-02-11T10:30:02.946Z,6.66
2019-02-11T10:31:02.927Z,6.73
2019-02-11T10:32:03.168Z,6.72
2019-02-11T10:33:03.142Z,6.77
2019-02-11T10:34:02.614Z,6.87
2019-02-11T10:35:03.103Z,6.91
2019-02-11T10:36:03.081Z,7.02
2019-02-11T10:37:02.805Z,7.15
2019-02-11T10:38:02.785Z,7.15
2019-02-11T10:39:03.019Z,7.17
2019-02-11T10:40:02.750Z,7.24
2019-02-11T10:41:02.984Z,7.26
2019-02-11T10:42:02.702Z,7.27
2019-02-11T10:43:03.007Z,7.22
2019-02-11T10:44:02.413Z,7.15
2019-02-11T10:45:02.467Z,7.19
2019-02-11T10:46:02.633Z,7.31
2019-02-11T10:47:02.608Z,7.41
2019-02-11T10:48:02.591Z,7.37
2019-02-11T10:49:02.575Z,7.5
2019-02-11T10:50:02.581Z,7.41
2019-02-11T10:51:02.793Z,7.42
2019-02-11T10:52:02.769Z,7.42
2019-02-11T10:53:02.759Z,7.44
2019-02-11T10:54:02.480Z,7.66
2019-02-11T10:55:02.452Z,7.77
2019-02-11T10:56:02.436Z,7.84
2019-02-11T10:57:02.672Z,7.93
2019-02-11T10:58:02.659Z,7.82
2019-02-11T10:59:02.647Z,7.92
2019-02-11T11:00:02.682Z,7.93
2019-02-11T11:01:02.106Z,8.02
2019-02-11T11:02:02.328Z,7.97
2019-02-11T11:03:02.365Z,8.03
2019-02-11T11:04:02.536Z,8.08
2019-02-11T11:05:02.684Z,8.04
2019-02-11T11:06:02.505Z,7.99
2019-02-11T11:07:02.488Z,8.08
2019-02-11T11:08:02.290Z,8
2019-02-11T11:09:02.455Z,7.99
2019-02-11T11:10:01.945Z,7.97
2019-02-11T11:11:02.155Z,7.85
2019-02-11T11:12:02.403Z,7.84
2019-02-11T11:13:01.868Z,7.75
2019-02-11T11:14:02.119Z,7.77
2019-02-11T11:15:01.832Z,7.66
2019-02-11T11:16:02.063Z,7.62
2019-02-11T11:17:01.803Z,7.45
2019-02-11T11:18:01.780Z,7.41
2019-02-11T11:19:02.013Z,7.45
2019-02-11T11:20:02.251Z,7.37
2019-02-11T11:21:01.992Z,7.49
2019-02-11T11:22:02.279Z,7.84
2019-02-11T11:23:01.937Z,8.15
2019-02-11T11:24:02.175Z,8.33
2019-02-11T11:25:01.649Z,8.3
2019-02-11T11:26:01.884Z,8.44
2019-02-11T11:27:02.347Z,8.55
2019-02-11T11:28:01.850Z,8.84
2019-02-11T11:29:02.091Z,8.97
2019-02-11T11:30:02.067Z,8.94
2019-02-11T11:31:02.060Z,8.91
2019-02-11T11:32:02.034Z,8.88
2019-02-11T11:33:01.756Z,9.02
2019-02-11T11:34:01.747Z,9.15
2019-02-11T11:35:01.983Z,9.23
2019-02-11T11:36:01.983Z,9.42
2019-02-11T11:37:01.959Z,9.67
2019-02-11T11:38:01.933Z,9.79
2019-02-11T11:39:01.688Z,9.91
2019-02-11T11:40:01.655Z,9.73
2019-02-11T11:41:01.885Z,9.45
2019-02-11T11:42:01.610Z,9.39
2019-02-11T11:43:01.596Z,9.57
2019-02-11T11:44:01.583Z,9.76
2019-02-11T11:45:01.964Z,9.88
2019-02-11T11:46:01.800Z,10.06
2019-02-11T11:47:01.535Z,10.03
2019-02-11T11:48:01.260Z,9.93
2019-02-11T11:49:01.499Z,10
2019-02-11T11:50:01.250Z,9.79
2019-02-11T11:51:01.729Z,9.45
2019-02-11T11:52:01.485Z,9.27
2019-02-11T11:53:01.446Z,9.18
2019-02-11T11:54:01.683Z,9.1
2019-02-11T11:55:01.690Z,9.02
2019-02-11T11:56:04.934Z,9.21
2019-02-11T11:57:03.746Z,9.57
2019-02-11T11:58:01.657Z,9.63
2019-02-11T11:59:01.435Z,9.56
2019-02-11T12:00:01.766Z,9.71
2019-02-11T12:01:01.636Z,9.75
2019-02-11T12:02:01.593Z,9.85
2019-02-11T12:03:08.633Z,10.21
2019-02-11T12:04:01.837Z,10.3
2019-02-11T12:05:01.304Z,10.3
2019-02-11T12:06:01.297Z,10.15
2019-02-11T12:07:01.516Z,10.15
2019-02-11T12:08:01.299Z,10.04
2019-02-11T12:09:03.925Z,10.09
2019-02-11T12:10:01.474Z,9.91
2019-02-11T12:11:01.230Z,9.86
2019-02-11T12:12:01.183Z,9.68
2019-02-11T12:13:20.325Z,9.57
2019-02-11T12:14:01.410Z,9.39
2019-02-11T12:15:01.466Z,9.32
2019-02-11T12:16:00.893Z,9.15
2019-02-11T12:17:07.248Z,9.12
2019-02-11T12:18:01.232Z,8.68
2019-02-11T12:19:00.826Z,7.82
2019-02-11T12:20:01.495Z,7.32
2019-02-11T12:21:01.559Z,6.95
2019-02-11T12:22:01.073Z,6.77
2019-02-11T12:23:01.451Z,6.47
2019-02-11T12:24:01.006Z,6.33
2019-02-11T12:25:01.085Z,6.1
2019-02-11T12:26:00.753Z,6.03
2019-02-11T12:27:00.965Z,5.91
2019-02-11T12:28:00.973Z,6.03
2019-02-11T12:29:01.185Z,5.95
2019-02-11T12:30:00.919Z,5.85
2019-02-11T12:31:01.192Z,5.77
2019-02-11T12:32:01.130Z,5.71
2019-02-11T12:33:01.376Z,5.86
2019-02-11T12:34:01.107Z,5.75
2019-02-11T12:35:01.125Z,5.83
2019-02-11T12:36:00.779Z,5.91
2019-02-11T12:37:01.014Z,6
2019-02-11T12:38:01.158Z,5.93
2019-02-11T12:39:00.781Z,5.93
2019-02-11T12:40:00.723Z,6.06
2019-02-11T12:41:00.798Z,6.11
2019-02-11T12:42:00.675Z,6.16
2019-02-11T12:43:00.672Z,6.36
2019-02-11T12:44:00.897Z,6.98
2019-02-11T12:45:00.667Z,7.72
2019-02-11T12:46:00.628Z,8.07
2019-02-11T12:47:18.055Z,8.83
2019-02-11T12:48:00.946Z,9.25
2019-02-11T12:49:04.139Z,9.78
2019-02-11T12:50:00.803Z,10.04
2019-02-11T12:51:00.573Z,10.32
2019-02-11T12:52:00.774Z,10.22
2019-02-11T12:53:00.252Z,10.22
2019-02-11T12:54:00.757Z,10.04
2019-02-11T12:55:00.717Z,10.07
2019-02-11T12:56:04.923Z,10.34
2019-02-11T12:57:00.459Z,10.73
2019-02-11T12:58:00.688Z,11.2
2019-02-11T12:59:00.679Z,11.68
2019-02-11T13:00:00.441Z,11.87
2019-02-11T13:01:00.444Z,12.19
2019-02-11T13:02:00.653Z,12.31
2019-02-11T13:03:00.704Z,12.41
2019-02-11T13:04:00.367Z,12.49
2019-02-11T13:05:00.519Z,12.69
2019-02-11T13:06:00.356Z,12.66
2019-02-11T13:07:00.571Z,12.7
2019-02-11T13:08:00.571Z,12.78
2019-02-11T13:09:00.309Z,13.14
2019-02-11T13:10:00.581Z,13.29
2019-02-11T13:11:00.269Z,13.27
2019-02-11T13:12:00.309Z,13.36
2019-02-11T13:13:00.524Z,13.47
2019-02-11T13:14:00.248Z,13.17
2019-02-11T13:15:00.470Z,12.88
2019-02-11T13:16:06.259Z,12.16
2019-02-11T13:17:14.089Z,11.77
2019-02-11T13:18:00.758Z,11.57
2019-02-11T13:19:00.234Z,11.28